Time;durP1;ratioP1;P1;durP2;ratioP2;P2;SDS_P1;SDS_P2;PMS_P1;PMS_P2;Temp;Humidity;BMP_temperature;BMP_pressure;BME280_temperature;BME280_humidity;BME280_pressure;Samples;Min_cycle;Max_cycle;Signal;HPM_P1;HPM_P2
2023/04/30 00:00:12;;;;;;;4.78;3.22;;;14.30;67.10;;;;;;5017951;28;20576;-75
2023/04/30 00:02:38;;;;;;;4.25;2.90;;;14.30;67.20;;;;;;4986059;28;20061;-75
2023/04/30 00:05:04;;;;;;;3.90;2.90;;;14.20;67.10;;;;;;5001587;28;20104;-76
2023/04/30 00:07:31;;;;;;;4.10;2.78;;;14.20;67.20;;;;;;5018236;28;20029;-76
2023/04/30 00:09:56;;;;;;;4.38;3.00;;;14.20;67.20;;;;;;5001575;28;20038;-76
2023/04/30 00:12:22;;;;;;;5.25;3.28;;;14.20;67.30;;;;;;5018074;28;20484;-76
2023/04/30 00:14:48;;;;;;;4.25;3.08;;;14.10;67.20;;;;;;5001209;28;20038;-75
2023/04/30 00:17:14;;;;;;;3.88;2.90;;;14.10;67.30;;;;;;4984988;28;20474;-76
2023/04/30 00:19:41;;;;;;;4.50;2.88;;;14.00;67.20;;;;;;5001325;28;20152;-75
2023/04/30 00:22:07;;;;;;;4.50;2.90;;;14.00;67.30;;;;;;5017340;28;20406;-75
2023/04/30 00:24:33;;;;;;;4.25;3.08;;;14.00;67.30;;;;;;5017695;28;20029;-76
2023/04/30 00:26:59;;;;;;;4.20;3.20;;;13.90;67.30;;;;;;5001074;28;20029;-76
2023/04/30 00:29:25;;;;;;;4.47;3.17;;;13.90;67.30;;;;;;5001879;28;20041;-75
2023/04/30 00:31:50;;;;;;;4.88;3.10;;;13.90;67.40;;;;;;5000838;28;20038;-76
2023/04/30 00:34:16;;;;;;;4.15;2.78;;;13.90;67.40;;;;;;5001123;28;20069;-76
2023/04/30 00:36:42;;;;;;;4.13;3.00;;;13.80;67.50;;;;;;5000961;28;20061;-76
2023/04/30 00:39:08;;;;;;;4.97;3.20;;;13.80;67.50;;;;;;5000859;28;20040;-76
2023/04/30 00:41:38;;;;;;;3.85;2.70;;;13.80;67.50;;;;;;5000807;28;20040;-75
2023/04/30 00:44:05;;;;;;;4.00;2.88;;;13.70;67.50;;;;;;5001064;28;20034;-76
2023/04/30 00:46:31;;;;;;;3.20;2.50;;;13.70;67.50;;;;;;4983836;28;20029;-76
2023/04/30 00:48:56;;;;;;;4.00;3.00;;;13.70;67.60;;;;;;4984847;28;20033;-76
2023/04/30 00:51:23;;;;;;;3.45;2.75;;;13.60;67.60;;;;;;5001217;28;20463;-77
2023/04/30 00:53:48;;;;;;;4.15;2.83;;;13.60;67.70;;;;;;5016704;28;20041;-76
2023/04/30 00:56:17;;;;;;;4.70;3.25;;;13.50;67.70;;;;;;5000770;28;20026;-75
2023/04/30 00:58:43;;;;;;;3.80;2.85;;;13.50;67.70;;;;;;5000578;28;20401;-76
2023/04/30 01:01:09;;;;;;;3.83;2.88;;;13.50;67.70;;;;;;5017191;28;20120;-76
2023/04/30 01:03:35;;;;;;;4.30;3.10;;;13.50;67.80;;;;;;5000642;28;20037;-76
2023/04/30 01:06:04;;;;;;;3.90;2.85;;;13.50;67.80;;;;;;5000992;28;20049;-76
2023/04/30 01:08:31;;;;;;;3.65;2.78;;;13.40;67.80;;;;;;5000850;28;20112;-75
2023/04/30 01:11:35;;;;;;;4.13;3.05;;;13.40;67.90;;;;;;5016458;28;20041;-75
2023/04/30 01:14:09;;;;;;;3.70;2.70;;;13.30;68.00;;;;;;4970715;28;20037;-76
2023/04/30 01:16:55;;;;;;;3.88;2.83;;;13.30;68.00;;;;;;5016906;28;20454;-76
2023/04/30 01:19:43;;;;;;;3.35;2.42;;;13.30;68.00;;;;;;4989444;28;20049;-76
2023/04/30 01:22:35;;;;;;;4.38;2.78;;;13.30;68.10;;;;;;5016462;28;20022;-76
2023/04/30 01:25:45;;;;;;;3.80;2.63;;;13.20;68.10;;;;;;5016492;28;20034;-76
2023/04/30 01:28:19;;;;;;;3.70;2.78;;;13.20;68.10;;;;;;4978813;28;20040;-76
2023/04/30 01:30:45;;;;;;;3.45;2.60;;;13.20;68.20;;;;;;5000008;28;20052;-76
2023/04/30 01:33:12;;;;;;;3.33;2.50;;;13.10;68.20;;;;;;5000677;28;20029;-76
2023/04/30 01:35:50;;;;;;;3.53;2.80;;;13.00;68.20;;;;;;5016149;28;20029;-76
2023/04/30 01:38:34;;;;;;;3.30;2.35;;;13.00;68.20;;;;;;5016399;28;20162;-75
2023/04/30 01:41:11;;;;;;;3.40;2.70;;;13.00;68.70;;;;;;5016927;28;20039;-75
2023/04/30 01:43:57;;;;;;;3.60;2.70;;;13.00;68.40;;;;;;5016894;28;20044;-76
2023/04/30 01:46:29;;;;;;;3.65;2.53;;;12.90;68.40;;;;;;5016327;28;20033;-76
2023/04/30 01:49:06;;;;;;;2.85;2.25;;;12.90;69.00;;;;;;5016137;28;20026;-76
2023/04/30 01:51:40;;;;;;;3.60;2.88;;;12.90;68.40;;;;;;5016016;28;20087;-76
2023/04/30 01:54:34;;;;;;;3.20;2.53;;;12.90;68.40;;;;;;5000067;28;20033;-76
2023/04/30 01:57:06;;;;;;;4.05;2.70;;;12.80;68.40;;;;;;5015523;28;20280;-76
2023/04/30 01:59:38;;;;;;;3.65;2.80;;;12.80;68.50;;;;;;4999648;28;20025;-76
2023/04/30 02:02:05;;;;;;;3.28;2.42;;;12.80;68.50;;;;;;5015622;28;20030;-75
2023/04/30 02:04:31;;;;;;;3.58;2.67;;;12.80;68.50;;;;;;4999283;28;20410;-75
2023/04/30 02:06:58;;;;;;;3.30;2.58;;;12.70;68.50;;;;;;5033896;28;20061;-75
2023/04/30 02:09:24;;;;;;;3.78;2.78;;;12.70;68.50;;;;;;4999379;28;20083;-76
2023/04/30 02:11:50;;;;;;;3.40;2.60;;;12.70;68.50;;;;;;5016211;28;20406;-75
2023/04/30 02:14:16;;;;;;;3.08;2.28;;;12.70;68.50;;;;;;5015548;28;20080;-75
2023/04/30 02:16:41;;;;;;;4.70;2.95;;;12.70;68.60;;;;;;5016276;28;20041;-75
2023/04/30 02:19:07;;;;;;;3.92;2.95;;;12.60;68.50;;;;;;5015615;28;20030;-76
2023/04/30 02:21:33;;;;;;;3.22;2.45;;;12.60;68.60;;;;;;4999819;28;20508;-75
2023/04/30 02:23:59;;;;;;;3.45;2.65;;;12.60;68.60;;;;;;4999209;28;20446;-76
2023/04/30 02:26:25;;;;;;;3.80;2.60;;;12.50;68.50;;;;;;4999440;28;20033;-74
2023/04/30 02:28:51;;;;;;;5.05;2.90;;;12.50;68.60;;;;;;4999566;28;20029;-75
2023/04/30 02:31:17;;;;;;;3.67;2.85;;;12.50;68.60;;;;;;4999780;28;20488;-76
2023/04/30 02:33:44;;;;;;;3.70;2.72;;;12.50;68.60;;;;;;4983779;28;20489;-76
2023/04/30 02:36:10;;;;;;;4.00;2.78;;;12.50;68.70;;;;;;4999050;28;20030;-75
2023/04/30 02:38:36;;;;;;;3.78;2.90;;;12.40;68.70;;;;;;4999621;28;20355;-76
2023/04/30 02:41:02;;;;;;;3.63;2.80;;;12.40;68.70;;;;;;4983026;28;20038;-75
2023/04/30 02:43:28;;;;;;;4.57;2.80;;;12.40;68.70;;;;;;4999227;28;20038;-75
2023/04/30 02:45:54;;;;;;;3.25;2.40;;;12.30;68.60;;;;;;4999741;28;20068;-75
2023/04/30 02:48:20;;;;;;;3.60;2.95;;;12.30;68.70;;;;;;4998989;28;20041;-75
2023/04/30 02:50:45;;;;;;;3.72;2.72;;;12.30;68.70;;;;;;5015173;28;20038;-75
2023/04/30 02:53:11;;;;;;;3.75;2.78;;;12.30;68.70;;;;;;4998659;28;20470;-76
2023/04/30 02:55:37;;;;;;;2.90;2.40;;;12.30;68.70;;;;;;4999066;28;20038;-75
2023/04/30 02:58:03;;;;;;;4.10;2.92;;;12.30;68.70;;;;;;4999419;28;20038;-75
2023/04/30 03:00:29;;;;;;;3.60;2.75;;;12.20;68.70;;;;;;5015408;28;20037;-76
2023/04/30 03:02:55;;;;;;;3.78;2.60;;;12.20;68.80;;;;;;4999180;28;20042;-75
2023/04/30 03:05:22;;;;;;;3.78;2.78;;;12.20;68.80;;;;;;4998852;28;20120;-75
2023/04/30 03:07:47;;;;;;;3.75;2.50;;;12.20;68.90;;;;;;4998949;28;20041;-75
2023/04/30 03:10:13;;;;;;;4.22;2.92;;;12.10;68.80;;;;;;5018309;28;20041;-75
2023/04/30 03:12:39;;;;;;;3.65;2.65;;;12.10;68.80;;;;;;5019008;28;20033;-75
2023/04/30 03:15:06;;;;;;;3.50;2.75;;;12.10;68.80;;;;;;5002185;28;20037;-75
2023/04/30 03:17:32;;;;;;;3.78;2.80;;;12.10;68.90;;;;;;5019436;28;20053;-75
2023/04/30 03:19:57;;;;;;;3.83;2.70;;;12.10;68.90;;;;;;4986256;28;20077;-75
2023/04/30 03:22:25;;;;;;;3.40;2.65;;;12.00;68.90;;;;;;5018876;28;20037;-76
2023/04/30 03:24:51;;;;;;;3.72;2.70;;;12.00;68.90;;;;;;5018636;28;20037;-75
2023/04/30 03:27:16;;;;;;;4.20;2.83;;;12.00;68.90;;;;;;5001753;28;20045;-76
2023/04/30 03:29:42;;;;;;;3.25;2.63;;;12.00;68.90;;;;;;4970419;28;20033;-75
2023/04/30 03:32:08;;;;;;;3.95;3.10;;;12.00;69.00;;;;;;5019082;28;20340;-75
2023/04/30 03:34:34;;;;;;;3.90;2.90;;;12.00;69.00;;;;;;5018080;28;20479;-76
2023/04/30 03:37:00;;;;;;;4.20;3.00;;;11.90;69.00;;;;;;5002188;28;20018;-76
2023/04/30 03:39:26;;;;;;;3.78;2.80;;;11.90;69.00;;;;;;5002050;28;20056;-76
2023/04/30 03:41:52;;;;;;;3.83;2.95;;;11.90;69.00;;;;;;5002154;28;20033;-76
2023/04/30 03:44:18;;;;;;;3.28;2.55;;;11.90;69.00;;;;;;5001874;28;20543;-75
2023/04/30 03:46:44;;;;;;;3.28;2.67;;;11.80;69.00;;;;;;5002178;28;20037;-76
2023/04/30 03:49:10;;;;;;;4.18;2.97;;;11.80;69.00;;;;;;5002196;28;20056;-75
2023/04/30 03:51:40;;;;;;;3.92;2.80;;;11.80;69.00;;;;;;5018087;28;20474;-76
2023/04/30 03:54:06;;;;;;;3.13;2.53;;;11.80;69.10;;;;;;5002086;28;20064;-75
2023/04/30 03:56:33;;;;;;;4.60;3.30;;;11.80;69.10;;;;;;5002500;28;20025;-75
2023/04/30 03:59:00;;;;;;;3.50;2.78;;;11.80;69.20;;;;;;5018002;28;20378;-76
2023/04/30 04:01:26;;;;;;;4.40;3.30;;;11.70;69.10;;;;;;4969945;28;20429;-75
2023/04/30 04:03:52;;;;;;;3.40;2.63;;;11.70;69.10;;;;;;5001822;28;20033;-75
2023/04/30 04:06:18;;;;;;;4.15;2.95;;;11.70;69.10;;;;;;5017875;28;20085;-75
2023/04/30 04:08:45;;;;;;;3.60;2.80;;;11.70;69.10;;;;;;5017768;28;20120;-75
2023/04/30 04:11:11;;;;;;;4.63;3.00;;;11.70;69.20;;;;;;5001497;28;20112;-76
2023/04/30 04:13:37;;;;;;;4.05;3.10;;;11.60;69.10;;;;;;5001281;28;20030;-76
2023/04/30 04:16:03;;;;;;;4.00;2.88;;;11.60;69.20;;;;;;5001526;28;20030;-76
2023/04/30 04:18:29;;;;;;;4.03;2.92;;;11.60;69.20;;;;;;5001546;28;20030;-75
2023/04/30 04:20:55;;;;;;;3.95;2.92;;;11.60;69.20;;;;;;5017440;28;20111;-76
2023/04/30 04:23:22;;;;;;;4.07;3.00;;;11.60;69.20;;;;;;5018348;28;20088;-75
2023/04/30 04:25:51;;;;;;;4.05;2.92;;;11.60;69.30;;;;;;5001241;28;20029;-75
2023/04/30 04:28:17;;;;;;;4.47;2.88;;;11.50;69.30;;;;;;5001567;28;20132;-75
2023/04/30 04:30:43;;;;;;;4.78;3.20;;;11.50;69.20;;;;;;5001023;28;20120;-75
2023/04/30 04:33:11;;;;;;;4.70;3.38;;;11.50;69.20;;;;;;5001042;28;20026;-76
2023/04/30 04:35:37;;;;;;;4.20;3.00;;;11.50;69.30;;;;;;5017250;28;20032;-75
2023/04/30 04:38:03;;;;;;;4.53;3.10;;;11.50;69.30;;;;;;5017176;28;20033;-76
2023/04/30 04:40:30;;;;;;;4.80;3.40;;;11.40;69.20;;;;;;5001067;28;20386;-76
2023/04/30 04:42:55;;;;;;;3.78;2.90;;;11.40;69.20;;;;;;5000871;28;20032;-76
2023/04/30 04:45:21;;;;;;;4.13;3.10;;;11.40;69.30;;;;;;4968561;28;20061;-76
2023/04/30 04:47:48;;;;;;;4.03;3.08;;;11.40;69.30;;;;;;5000979;28;20526;-75
2023/04/30 04:50:14;;;;;;;5.05;3.25;;;11.40;69.30;;;;;;5000913;28;20029;-75
2023/04/30 04:52:40;;;;;;;4.10;3.38;;;11.40;69.40;;;;;;5001002;28;20144;-76
2023/04/30 04:55:06;;;;;;;4.55;3.05;;;11.30;69.30;;;;;;5017241;28;20080;-76
2023/04/30 04:57:32;;;;;;;4.55;3.20;;;11.30;69.30;;;;;;5001172;28;20030;-76
2023/04/30 04:59:58;;;;;;;4.40;3.00;;;11.30;69.40;;;;;;4999952;28;20033;-75
2023/04/30 05:02:24;;;;;;;4.25;3.10;;;11.30;69.40;;;;;;4984493;28;20132;-76
2023/04/30 05:04:50;;;;;;;4.35;3.30;;;11.30;70.00;;;;;;5000515;28;20052;-75
2023/04/30 05:07:17;;;;;;;4.20;3.42;;;11.30;69.40;;;;;;5016879;28;20087;-75
2023/04/30 05:09:46;;;;;;;5.55;3.50;;;11.30;69.40;;;;;;4984100;28;20037;-75
2023/04/30 05:12:13;;;;;;;6.03;3.20;;;11.20;69.40;;;;;;5000346;28;20433;-75
2023/04/30 05:14:39;;;;;;;4.97;3.67;;;11.20;69.40;;;;;;5017366;28;20087;-76
2023/04/30 05:17:05;;;;;;;4.68;3.55;;;11.20;69.40;;;;;;5000792;28;20037;-76
2023/04/30 05:19:32;;;;;;;4.13;3.25;;;11.20;69.40;;;;;;5000508;28;20119;-76
2023/04/30 05:21:57;;;;;;;4.68;3.55;;;11.20;69.40;;;;;;5000784;28;20037;-76
2023/04/30 05:24:23;;;;;;;4.88;3.50;;;11.20;69.40;;;;;;5016301;28;20041;-75
2023/04/30 05:26:49;;;;;;;5.78;3.83;;;11.20;69.50;;;;;;5016513;28;20038;-75
2023/04/30 05:29:15;;;;;;;5.18;3.63;;;11.20;69.50;;;;;;5016893;28;20362;-76
2023/04/30 05:31:40;;;;;;;4.05;3.08;;;11.20;69.50;;;;;;5015461;28;20466;-75
2023/04/30 05:34:06;;;;;;;4.80;3.60;;;11.20;69.50;;;;;;5000634;28;20053;-75
2023/04/30 05:36:32;;;;;;;6.05;3.58;;;11.20;69.60;;;;;;4999859;28;20085;-75
2023/04/30 05:38:58;;;;;;;5.80;3.33;;;11.10;69.50;;;;;;5000526;28;20079;-76
2023/04/30 05:41:24;;;;;;;4.22;3.35;;;11.10;69.50;;;;;;5033636;28;20044;-75
2023/04/30 05:43:50;;;;;;;4.55;3.63;;;11.10;69.60;;;;;;5016579;28;20044;-75
2023/04/30 05:46:15;;;;;;;5.50;3.63;;;11.10;69.60;;;;;;5034559;28;20045;-75
2023/04/30 05:48:41;;;;;;;5.53;3.35;;;11.20;69.70;;;;;;4999758;28;20489;-76
2023/04/30 05:51:07;;;;;;;4.97;3.80;;;11.10;69.60;;;;;;4999498;28;20037;-76
2023/04/30 05:53:33;;;;;;;4.53;3.33;;;11.10;69.60;;;;;;4999389;28;20034;-76
2023/04/30 05:55:58;;;;;;;4.97;3.72;;;11.20;69.70;;;;;;4999526;28;20033;-75
2023/04/30 05:58:24;;;;;;;5.47;3.80;;;11.10;69.60;;;;;;4999768;28;20041;-75
2023/04/30 06:00:51;;;;;;;5.47;3.80;;;11.10;69.70;;;;;;5033344;28;20048;-75
2023/04/30 06:03:18;;;;;;;5.65;4.05;;;11.10;69.70;;;;;;5016628;28;20564;-75
2023/04/30 06:05:44;;;;;;;6.13;4.25;;;11.10;69.70;;;;;;5016204;28;20030;-75
2023/04/30 06:08:10;;;;;;;5.03;3.83;;;11.10;69.70;;;;;;4999583;28;20037;-75
2023/04/30 06:10:36;;;;;;;4.80;3.70;;;11.20;69.80;;;;;;5015690;28;20060;-75
2023/04/30 06:13:02;;;;;;;4.57;3.70;;;11.10;69.70;;;;;;5016587;28;20026;-76
2023/04/30 06:15:28;;;;;;;4.72;3.75;;;11.10;69.70;;;;;;4999417;28;20045;-76
2023/04/30 06:17:54;;;;;;;4.65;3.70;;;11.10;69.70;;;;;;4999226;28;20466;-76
2023/04/30 06:20:19;;;;;;;4.80;3.55;;;11.10;69.70;;;;;;4999146;28;20103;-75
2023/04/30 06:22:45;;;;;;;4.70;3.63;;;11.10;69.70;;;;;;5015505;28;20030;-76
2023/04/30 06:25:11;;;;;;;4.63;3.55;;;11.20;69.80;;;;;;4999290;28;20079;-76
2023/04/30 06:27:37;;;;;;;4.43;3.42;;;11.10;69.80;;;;;;5033787;28;20040;-76
2023/04/30 06:30:03;;;;;;;4.90;3.58;;;11.20;69.80;;;;;;4999149;28;20057;-76
2023/04/30 06:32:28;;;;;;;4.50;3.53;;;11.10;69.80;;;;;;5016178;28;20113;-76
2023/04/30 06:34:54;;;;;;;4.40;3.45;;;11.20;69.80;;;;;;5015467;28;20029;-76
2023/04/30 06:37:20;;;;;;;4.80;3.25;;;11.20;69.80;;;;;;5015924;28;20500;-76
2023/04/30 06:39:46;;;;;;;5.20;3.58;;;11.20;69.80;;;;;;4967658;28;20025;-77
2023/04/30 06:42:11;;;;;;;4.55;3.47;;;11.20;69.80;;;;;;4999113;28;20063;-77
2023/04/30 06:44:37;;;;;;;4.25;3.38;;;11.20;69.80;;;;;;5019665;28;20033;-77
2023/04/30 06:47:03;;;;;;;5.10;3.55;;;11.20;69.90;;;;;;4970725;28;20038;-77
2023/04/30 06:49:29;;;;;;;4.90;3.63;;;11.20;69.90;;;;;;4970792;28;20478;-77
2023/04/30 06:51:57;;;;;;;4.80;3.40;;;11.20;69.90;;;;;;5002933;28;20071;-77
2023/04/30 06:54:25;;;;;;;4.40;3.58;;;11.20;69.90;;;;;;5003878;28;20489;-78
2023/04/30 06:56:51;;;;;;;5.05;3.97;;;11.30;70.00;;;;;;5002884;28;20033;-77
2023/04/30 06:59:17;;;;;;;4.40;3.40;;;11.20;69.90;;;;;;5036946;28;20057;-77
2023/04/30 07:01:43;;;;;;;4.65;3.63;;;11.30;70.00;;;;;;5003180;28;20065;-77
2023/04/30 07:04:08;;;;;;;4.68;3.45;;;11.20;70.00;;;;;;5003539;28;20407;-77
2023/04/30 07:06:34;;;;;;;4.40;3.42;;;11.20;70.00;;;;;;5018984;28;20107;-77
2023/04/30 07:09:01;;;;;;;5.63;3.88;;;11.30;70.00;;;;;;5002497;28;20025;-77
2023/04/30 07:11:27;;;;;;;5.22;3.50;;;11.30;70.00;;;;;;5036359;28;20029;-77
2023/04/30 07:13:53;;;;;;;5.47;4.28;;;11.30;70.00;;;;;;5018964;28;20032;-77
2023/04/30 07:16:18;;;;;;;4.47;3.45;;;11.30;70.00;;;;;;5002371;28;20025;-77
2023/04/30 07:18:47;;;;;;;5.25;4.03;;;11.30;70.00;;;;;;5002229;28;20041;-77
2023/04/30 07:21:13;;;;;;;4.72;3.47;;;11.30;70.00;;;;;;4996792;28;20050;-77
2023/04/30 07:23:39;;;;;;;5.07;3.90;;;11.30;70.00;;;;;;4979884;28;20088;-77
2023/04/30 07:26:05;;;;;;;4.75;3.72;;;11.40;70.10;;;;;;4995808;28;20491;-78
2023/04/30 07:28:31;;;;;;;4.95;3.88;;;11.40;70.10;;;;;;4979792;28;20038;-78
2023/04/30 07:30:56;;;;;;;4.60;3.35;;;11.40;70.00;;;;;;4995638;28;20034;-78
2023/04/30 07:33:22;;;;;;;5.35;3.80;;;11.40;70.00;;;;;;4979610;28;20089;-78
2023/04/30 07:35:48;;;;;;;5.40;4.03;;;11.40;70.00;;;;;;4979061;28;20069;-78
2023/04/30 07:38:14;;;;;;;5.25;3.95;;;11.40;70.10;;;;;;4979282;28;20502;-78
2023/04/30 07:40:39;;;;;;;4.82;3.67;;;11.40;69.70;;;;;;4979658;28;20034;-77
2023/04/30 07:43:05;;;;;;;3.78;2.92;;;11.40;70.00;;;;;;4962984;28;20030;-77
2023/04/30 07:45:32;;;;;;;4.80;3.92;;;11.50;70.10;;;;;;4963052;28;20034;-78
2023/04/30 07:47:58;;;;;;;4.57;3.60;;;11.50;70.00;;;;;;4979376;28;20382;-78
2023/04/30 07:50:24;;;;;;;4.57;3.75;;;11.50;70.00;;;;;;4946935;28;20042;-77
2023/04/30 07:52:50;;;;;;;4.35;3.47;;;11.50;70.00;;;;;;4979356;28;20113;-79
2023/04/30 07:55:15;;;;;;;4.57;3.38;;;11.60;70.10;;;;;;4994870;28;20026;-78
2023/04/30 07:57:41;;;;;;;5.55;4.00;;;11.60;70.10;;;;;;4979243;28;20486;-79
2023/04/30 08:00:07;;;;;;;5.07;4.05;;;11.60;70.00;;;;;;4962611;28;20122;-78
2023/04/30 08:02:38;;;;;;;4.68;3.47;;;11.70;70.00;;;;;;4979446;28;20406;-79
2023/04/30 08:05:04;;;;;;;4.13;3.55;;;11.70;70.00;;;;;;4979111;28;20045;-78
2023/04/30 08:07:30;;;;;;;5.05;3.88;;;11.70;69.90;;;;;;4995344;28;20044;-80
2023/04/30 08:09:56;;;;;;;5.35;3.72;;;11.80;69.90;;;;;;4978744;28;20454;-78
2023/04/30 08:12:21;;;;;;;4.70;3.58;;;11.80;69.90;;;;;;4994631;28;20050;-77
2023/04/30 08:14:47;;;;;;;5.10;3.75;;;11.90;69.90;;;;;;4995001;28;20070;-78
2023/04/30 08:17:13;;;;;;;4.47;3.35;;;11.90;69.80;;;;;;4995081;28;20058;-77
2023/04/30 08:19:38;;;;;;;4.65;3.42;;;12.00;69.80;;;;;;4966715;28;20053;-77
2023/04/30 08:22:04;;;;;;;4.55;3.70;;;12.00;69.70;;;;;;4997941;28;20045;-77
2023/04/30 08:24:30;;;;;;;5.03;3.60;;;12.10;69.70;;;;;;4997946;28;20052;-77
2023/04/30 08:26:56;;;;;;;4.10;3.40;;;12.10;69.60;;;;;;4997606;28;20034;-78
2023/04/30 08:29:21;;;;;;;4.28;3.40;;;12.20;69.50;;;;;;5015676;28;20069;-77
2023/04/30 08:31:47;;;;;;;3.95;3.30;;;12.20;69.40;;;;;;4997749;28;20483;-77
2023/04/30 08:34:13;;;;;;;5.03;3.58;;;12.30;69.30;;;;;;4998266;28;20069;-77
2023/04/30 08:36:39;;;;;;;4.10;3.33;;;12.40;69.30;;;;;;5014032;28;20033;-77
2023/04/30 08:39:04;;;;;;;4.90;3.80;;;12.50;69.20;;;;;;4997375;28;20037;-78
2023/04/30 08:41:35;;;;;;;4.45;3.20;;;12.50;69.00;;;;;;4997773;28;20056;-78
2023/04/30 08:44:02;;;;;;;4.15;3.28;;;12.60;69.00;;;;;;4997596;28;20114;-77
2023/04/30 08:46:31;;;;;;;4.47;3.25;;;12.70;69.40;;;;;;5013791;28;20473;-78
2023/04/30 08:48:56;;;;;;;4.53;3.58;;;12.80;68.80;;;;;;5015088;28;20053;-77
2023/04/30 08:51:24;;;;;;;3.58;2.97;;;12.90;68.70;;;;;;5013994;28;20038;-77
2023/04/30 08:53:51;;;;;;;5.10;3.30;;;13.00;68.60;;;;;;4997338;28;20069;-77
2023/04/30 08:56:17;;;;;;;4.70;3.50;;;13.10;68.50;;;;;;5013552;28;20087;-77
2023/04/30 08:58:43;;;;;;;4.03;3.40;;;13.10;68.40;;;;;;5013926;28;20425;-77
2023/04/30 09:01:09;;;;;;;5.25;3.30;;;13.20;68.30;;;;;;4997899;28;20418;-78
2023/04/30 09:03:35;;;;;;;4.55;3.45;;;13.30;68.30;;;;;;4997967;28;20439;-78
2023/04/30 09:06:01;;;;;;;5.50;3.92;;;13.40;68.30;;;;;;4963986;28;20054;-78
2023/04/30 09:08:45;;;;;;;3.70;2.90;;;13.50;68.20;;;;;;4997061;28;20065;-77
2023/04/30 09:11:29;;;;;;;4.80;3.20;;;13.60;68.20;;;;;;5014321;28;20505;-75
2023/04/30 09:13:57;;;;;;;4.43;3.38;;;13.70;68.10;;;;;;4997263;28;20034;-76
2023/04/30 09:16:24;;;;;;;4.57;3.40;;;13.80;67.90;;;;;;4997586;28;20032;-76
2023/04/30 09:18:51;;;;;;;4.82;3.30;;;13.80;67.80;;;;;;4997009;28;20116;-76
2023/04/30 09:21:29;;;;;;;5.50;3.50;;;14.00;67.80;;;;;;4997036;28;20096;-76
2023/04/30 09:24:00;;;;;;;4.43;3.38;;;14.00;67.70;;;;;;5013461;28;20056;-76
2023/04/30 09:26:34;;;;;;;4.38;3.33;;;14.10;67.60;;;;;;5014231;28;20117;-76
2023/04/30 09:29:09;;;;;;;5.43;3.15;;;14.20;67.50;;;;;;5060860;28;20419;-78
2023/04/30 09:31:39;;;;;;;4.25;3.08;;;14.30;67.40;;;;;;5045814;28;20107;-75
2023/04/30 09:34:05;;;;;;;4.07;3.05;;;14.50;67.50;;;;;;5049052;28;20071;-75
2023/04/30 09:36:32;;;;;;;4.85;3.53;;;14.50;67.30;;;;;;5054710;28;20029;-78
2023/04/30 09:39:12;;;;;;;4.40;3.10;;;14.60;67.40;;;;;;5049903;28;20367;-78
2023/04/30 09:41:38;;;;;;;4.90;3.25;;;14.70;67.40;;;;;;5049399;28;20037;-78
2023/04/30 09:44:04;;;;;;;4.70;3.30;;;14.80;67.20;;;;;;5051435;28;20036;-78
2023/04/30 09:46:32;;;;;;;4.13;3.22;;;14.90;67.20;;;;;;5046157;28;20029;-78
2023/04/30 09:49:02;;;;;;;3.95;3.15;;;15.00;67.10;;;;;;5045885;28;20021;-78
2023/04/30 09:51:28;;;;;;;4.45;3.50;;;15.10;67.10;;;;;;5059659;28;20065;-77
2023/04/30 09:53:57;;;;;;;4.15;3.20;;;15.20;67.00;;;;;;5031881;28;20072;-77
2023/04/30 09:56:27;;;;;;;4.28;3.15;;;15.30;67.00;;;;;;5054755;28;20021;-78
2023/04/30 09:58:55;;;;;;;5.30;3.38;;;15.40;67.60;;;;;;5039609;28;20314;-77
2023/04/30 10:01:26;;;;;;;4.20;3.03;;;15.50;67.00;;;;;;5055915;28;20025;-77
2023/04/30 10:03:52;;;;;;;3.97;3.22;;;15.60;67.00;;;;;;5047713;28;20026;-77
2023/04/30 10:06:20;;;;;;;3.97;3.00;;;15.70;67.60;;;;;;5032699;28;20116;-77
2023/04/30 10:08:50;;;;;;;4.15;3.08;;;15.80;67.00;;;;;;5032893;28;20329;-77
2023/04/30 10:11:21;;;;;;;3.95;3.03;;;15.90;67.00;;;;;;5043028;28;20504;-77
2023/04/30 10:13:54;;;;;;;4.10;3.10;;;16.00;67.00;;;;;;5043606;28;20434;-77
2023/04/30 10:16:27;;;;;;;5.25;3.47;;;16.10;67.00;;;;;;5038422;28;20045;-77
2023/04/30 10:18:56;;;;;;;3.97;3.05;;;16.20;67.00;;;;;;5049087;28;20048;-77
2023/04/30 10:21:25;;;;;;;4.93;3.45;;;16.30;66.90;;;;;;5021863;28;20375;-77
2023/04/30 10:23:53;;;;;;;4.10;3.17;;;16.40;67.00;;;;;;5048211;28;20021;-77
2023/04/30 10:26:19;;;;;;;3.58;2.80;;;16.50;66.90;;;;;;5049429;28;20343;-77
2023/04/30 10:28:47;;;;;;;3.17;2.85;;;16.60;66.90;;;;;;5022906;28;20165;-79
2023/04/30 10:31:13;;;;;;;4.40;3.13;;;16.70;66.90;;;;;;5042202;28;20022;-77
2023/04/30 10:33:51;;;;;;;3.47;3.08;;;16.80;66.90;;;;;;5029129;28;20129;-77
2023/04/30 10:36:27;;;;;;;3.85;2.95;;;17.00;67.00;;;;;;5046368;28;20481;-78
2023/04/30 10:38:53;;;;;;;3.75;3.10;;;17.00;67.00;;;;;;5026168;28;20029;-77
2023/04/30 10:41:19;;;;;;;3.58;2.97;;;17.10;66.90;;;;;;5042112;28;20334;-77
2023/04/30 10:43:46;;;;;;;4.10;3.17;;;17.20;66.90;;;;;;5028934;28;20558;-78
2023/04/30 10:46:22;;;;;;;4.95;3.60;;;17.30;66.10;;;;;;5017443;28;20040;-78
2023/04/30 10:48:48;;;;;;;4.20;3.47;;;17.40;65.70;;;;;;5030617;28;20037;-78
2023/04/30 10:51:13;;;;;;;4.93;3.53;;;17.50;65.50;;;;;;5007527;28;20516;-78
2023/04/30 10:53:41;;;;;;;3.65;2.95;;;17.60;65.20;;;;;;5024178;28;20124;-77
2023/04/30 10:56:10;;;;;;;4.65;3.58;;;17.70;64.90;;;;;;5028226;28;20495;-83
2023/04/30 10:58:38;;;;;;;4.45;3.38;;;17.80;64.70;;;;;;5010052;28;20041;-80
2023/04/30 11:01:16;;;;;;;4.82;3.63;;;17.80;64.40;;;;;;5008810;28;20133;-80
2023/04/30 11:04:02;;;;;;;3.75;2.90;;;17.90;64.20;;;;;;5007124;28;20525;-80
2023/04/30 11:06:55;;;;;;;5.00;3.30;;;18.00;64.70;;;;;;5043805;28;20033;-80
2023/04/30 11:09:44;;;;;;;4.60;3.30;;;18.10;63.70;;;;;;5027346;28;20087;-80
2023/04/30 11:12:27;;;;;;;3.95;3.17;;;18.10;63.80;;;;;;5033029;28;20048;-81
2023/04/30 11:15:06;;;;;;;3.95;3.08;;;18.20;63.60;;;;;;5021914;28;20046;-79
2023/04/30 11:17:32;;;;;;;4.35;3.05;;;18.30;63.50;;;;;;5031135;28;20045;-78
2023/04/30 11:19:59;;;;;;;4.57;3.15;;;18.30;63.20;;;;;;5030133;28;20013;-79
2023/04/30 11:22:28;;;;;;;4.07;3.17;;;18.40;62.90;;;;;;5014780;28;20037;-79
2023/04/30 11:24:57;;;;;;;3.97;2.92;;;18.50;62.80;;;;;;5036089;28;20060;-79
2023/04/30 11:27:28;;;;;;;5.32;2.83;;;18.60;62.80;;;;;;5034788;28;20053;-79
2023/04/30 11:29:55;;;;;;;3.88;2.88;;;18.60;62.50;;;;;;5034582;28;20047;-79
2023/04/30 11:32:23;;;;;;;3.85;2.92;;;18.70;62.20;;;;;;5033582;28;20477;-79
2023/04/30 11:34:49;;;;;;;4.40;3.03;;;18.70;62.00;;;;;;5016270;28;20037;-79
2023/04/30 11:37:20;;;;;;;4.53;3.28;;;18.80;62.10;;;;;;5020717;28;20497;-79
2023/04/30 11:39:47;;;;;;;3.30;2.50;;;18.80;61.90;;;;;;5029301;28;20063;-79
2023/04/30 11:42:20;;;;;;;4.35;3.08;;;18.90;61.90;;;;;;5012713;28;20044;-80
2023/04/30 11:44:46;;;;;;;4.07;3.08;;;18.90;61.80;;;;;;5015612;28;20029;-80
2023/04/30 11:47:15;;;;;;;4.43;2.80;;;19.00;61.50;;;;;;5037313;28;20477;-80
2023/04/30 11:49:42;;;;;;;4.00;2.92;;;19.10;61.30;;;;;;5029520;28;20034;-79
2023/04/30 11:52:08;;;;;;;4.22;3.00;;;19.10;61.10;;;;;;5030514;28;20020;-80
2023/04/30 11:54:37;;;;;;;3.35;2.67;;;19.10;61.00;;;;;;5012220;28;20073;-79
2023/04/30 11:57:04;;;;;;;4.15;2.80;;;19.20;61.10;;;;;;5032377;28;20049;-80
2023/04/30 11:59:38;;;;;;;3.80;2.60;;;19.20;61.00;;;;;;5019725;28;20037;-80
2023/04/30 12:02:05;;;;;;;4.57;3.00;;;19.30;60.90;;;;;;5031054;28;20041;-80
2023/04/30 12:04:31;;;;;;;3.50;2.65;;;19.30;60.90;;;;;;5019571;28;20035;-80
2023/04/30 12:06:58;;;;;;;3.45;2.50;;;19.30;60.90;;;;;;5028944;28;20037;-80
2023/04/30 12:09:24;;;;;;;2.97;2.45;;;19.30;60.70;;;;;;5033266;28;20041;-80
2023/04/30 12:11:50;;;;;;;3.28;2.38;;;19.40;60.70;;;;;;5013664;28;20102;-80
2023/04/30 12:14:15;;;;;;;2.85;2.30;;;19.40;60.60;;;;;;5004085;28;20057;-79
2023/04/30 12:16:49;;;;;;;3.45;2.50;;;19.40;60.40;;;;;;5027581;28;20105;-79
2023/04/30 12:19:22;;;;;;;3.67;2.40;;;19.50;60.50;;;;;;5020602;28;20551;-79
2023/04/30 12:21:48;;;;;;;2.83;2.20;;;19.50;60.30;;;;;;5016873;28;20021;-80
2023/04/30 12:24:16;;;;;;;2.67;2.00;;;19.50;60.10;;;;;;5010422;28;20040;-81
2023/04/30 12:26:42;;;;;;;2.67;2.33;;;19.50;59.90;;;;;;5012149;28;20115;-81
2023/04/30 12:29:16;;;;;;;2.53;2.03;;;19.60;59.90;;;;;;5027530;28;20041;-81
2023/04/30 12:31:43;;;;;;;2.13;1.83;;;19.60;59.60;;;;;;5017334;28;20043;-82
2023/04/30 12:34:13;;;;;;;2.65;2.00;;;19.60;59.60;;;;;;5024853;28;20022;-81
2023/04/30 12:36:42;;;;;;;3.05;1.75;;;19.70;59.50;;;;;;5013307;28;20029;-82
2023/04/30 12:39:10;;;;;;;3.47;2.17;;;19.70;59.20;;;;;;5006616;28;20029;-86
2023/04/30 12:41:41;;;;;;;2.58;2.00;;;19.70;59.00;;;;;;5031792;28;20037;-85
2023/04/30 12:44:41;;;;;;;2.63;1.65;;;19.70;59.00;;;;;;5028732;28;20030;-88
2023/04/30 12:47:08;;;;;;;2.13;1.60;;;19.80;59.00;;;;;;5025987;28;20477;-79
2023/04/30 12:49:35;;;;;;;2.10;1.80;;;19.80;58.80;;;;;;5021267;28;20109;-81
2023/04/30 12:52:08;;;;;;;3.20;1.80;;;19.90;58.80;;;;;;5025318;28;20037;-80